Time;durP1;ratioP1;P1;durP2;ratioP2;P2;SDS_P1;SDS_P2;PMS_P1;PMS_P2;Temp;Humidity;BMP_temperature;BMP_pressure;BME280_temperature;BME280_humidity;BME280_pressure;Samples;Min_cycle;Max_cycle;Signal;HPM_P1;HPM_P2
2022/01/17 00:00:00;;;;;;;56.78;32.25;;;;;;;4.86;100.00;103080.03;5015760;28;20029;-72
2022/01/17 00:02:28;;;;;;;56.42;31.27;;;;;;;5.03;100.00;103118.38;5015634;28;20054;-73
2022/01/17 00:04:53;;;;;;;61.17;31.90;;;;;;;5.05;100.00;103119.22;5015720;28;20026;-71
2022/01/17 00:07:18;;;;;;;54.13;30.27;;;;;;;5.06;100.00;103123.50;5015820;28;20108;-71
2022/01/17 00:09:44;;;;;;;51.17;30.20;;;;;;;5.07;100.00;103125.19;5015614;28;20049;-71
2022/01/17 00:12:10;;;;;;;53.25;28.67;;;;;;;5.07;100.00;103131.16;5015495;28;20401;-73
2022/01/17 00:14:40;;;;;;;50.22;28.77;;;;;;;5.09;100.00;103128.59;5015507;28;20028;-72
2022/01/17 00:17:33;;;;;;;53.13;28.20;;;;;;;4.98;100.00;103110.72;4998588;28;20398;-71
2022/01/17 00:19:56;;;;;;;50.17;26.83;;;;;;;5.02;100.00;103112.41;5014699;28;20030;-72
2022/01/17 00:22:22;;;;;;;59.75;28.15;;;;;;;5.01;100.00;103118.38;5015527;28;20030;-72
2022/01/17 00:24:50;;;;;;;48.30;27.17;;;;;;;5.09;100.00;103133.72;5015421;28;20517;-71
2022/01/17 00:27:15;;;;;;;50.83;25.92;;;;;;;5.01;100.00;103115.81;5015257;28;20026;-71
2022/01/17 00:29:41;;;;;;;49.83;27.13;;;;;;;5.05;100.00;103125.19;5015209;28;20168;-72
2022/01/17 00:32:07;;;;;;;56.58;27.90;;;;;;;5.06;100.00;103118.38;5015431;28;20564;-85
2022/01/17 00:34:32;;;;;;;55.15;27.05;;;;;;;5.05;100.00;103119.22;5015031;28;20044;-84
2022/01/17 00:36:58;;;;;;;52.65;28.60;;;;;;;5.02;100.00;103120.09;5015226;28;20156;-71
2022/01/17 00:39:23;;;;;;;46.63;26.73;;;;;;;5.01;100.00;103117.50;5014939;28;20022;-70
2022/01/17 00:41:48;;;;;;;46.78;26.13;;;;;;;4.98;100.00;103114.97;5015189;28;20033;-71
2022/01/17 00:44:19;;;;;;;55.25;27.08;;;;;;;4.99;100.00;103116.69;5014939;28;20112;-82
2022/01/17 00:46:45;;;;;;;54.47;26.83;;;;;;;4.72;100.00;103080.09;5015166;28;20101;-83
2022/01/17 00:49:10;;;;;;;50.08;27.15;;;;;;;4.94;100.00;103115.84;5014973;28;20029;-84
2022/01/17 00:51:35;;;;;;;45.33;25.15;;;;;;;5.04;100.00;103132.91;5014762;28;20033;-83
2022/01/17 00:54:00;;;;;;;51.67;27.17;;;;;;;5.03;100.00;103120.94;5014662;28;20053;-83
2022/01/17 00:56:26;;;;;;;45.08;25.15;;;;;;;5.06;100.00;103139.72;5015020;28;20032;-84
2022/01/17 00:58:51;;;;;;;47.65;25.90;;;;;;;5.06;100.00;103143.97;5014928;28;20058;-84
2022/01/17 01:01:17;;;;;;;44.17;24.75;;;;;;;4.92;100.00;103114.97;4996669;28;20069;-79
2022/01/17 01:03:43;;;;;;;45.47;25.30;;;;;;;5.05;100.00;103130.31;5014705;28;20033;-82
2022/01/17 01:06:09;;;;;;;46.20;25.90;;;;;;;5.05;100.00;103139.72;5014878;28;20085;-84
2022/01/17 01:08:34;;;;;;;42.20;22.23;;;;;;;5.04;100.00;103141.44;5014533;28;20498;-77
2022/01/17 01:11:00;;;;;;;41.58;22.35;;;;;;;5.01;100.00;103145.69;5014746;28;20034;-81
2022/01/17 01:13:28;;;;;;;41.05;22.27;;;;;;;4.95;100.00;103140.59;5014782;28;20026;-84
2022/01/17 01:29:28;;;;;;;35.33;18.92;;;;;;;4.92;100.00;103104.75;4935283;29;20075;-83
2022/01/17 01:31:59;;;;;;;35.28;17.83;;;;;;;4.92;100.00;103108.19;4934717;29;20040;-84
2022/01/17 01:34:38;;;;;;;33.70;18.38;;;;;;;4.99;100.00;103114.97;4934406;29;20083;-84
2022/01/17 01:37:04;;;;;;;36.80;18.40;;;;;;;5.07;100.00;103132.88;4934411;29;20059;-81
2022/01/17 01:39:30;;;;;;;42.78;19.88;;;;;;;5.03;100.00;103129.47;4935104;29;20081;-80
2022/01/17 01:41:56;;;;;;;35.60;19.60;;;;;;;5.10;100.00;103143.94;4934731;29;20039;-83
2022/01/17 01:44:23;;;;;;;38.72;19.85;;;;;;;5.13;100.00;103155.91;4934598;29;20102;-83
2022/01/17 01:46:51;;;;;;;31.73;19.67;;;;;;;5.11;100.00;103165.28;4934563;29;20111;-84
2022/01/17 01:49:17;;;;;;;36.80;19.98;;;;;;;5.05;100.00;103157.63;4934282;29;20412;-81
2022/01/17 01:51:43;;;;;;;37.60;20.77;;;;;;;4.77;100.00;103138.91;4934196;29;20039;-82
2022/01/17 01:54:09;;;;;;;38.47;19.92;;;;;;;4.66;100.00;103127.84;4934222;29;20031;-73
2022/01/17 01:56:38;;;;;;;39.97;20.20;;;;;;;4.56;100.00;103132.97;4934243;29;20117;-73
2022/01/17 01:59:05;;;;;;;41.60;20.52;;;;;;;4.53;100.00;103147.50;5000868;28;20037;-79
2022/01/17 02:01:30;;;;;;;39.30;18.98;;;;;;;4.41;100.00;103158.56;5013837;28;20026;-70
2022/01/17 02:03:56;;;;;;;46.63;19.63;;;;;;;4.22;100.00;103152.59;5013536;28;20029;-82
2022/01/17 02:06:21;;;;;;;39.03;18.50;;;;;;;4.19;100.00;103162.81;4995760;28;20038;-76
2022/01/17 02:08:47;;;;;;;39.88;18.13;;;;;;;4.14;100.00;103173.91;5013415;28;20077;-75
2022/01/17 02:11:12;;;;;;;33.58;17.75;;;;;;;3.98;100.00;103166.19;5013616;28;20375;-78
2022/01/17 02:13:39;;;;;;;39.03;17.83;;;;;;;3.96;100.00;103164.50;5013552;28;20049;-72
2022/01/17 02:16:09;;;;;;;34.28;16.02;;;;;;;3.88;100.00;103166.19;5013203;28;20041;-82
2022/01/17 02:18:35;;;;;;;36.60;17.33;;;;;;;3.82;100.00;103173.81;5013395;28;20096;-84
2022/01/17 02:23:41;;;;;;;30.98;16.73;;;;;;;3.57;100.00;103137.13;5013663;28;20042;-72
2022/01/17 02:26:06;;;;;;;31.33;15.55;;;;;;;3.65;100.00;103155.91;5013742;28;20029;-79
2022/01/17 02:28:33;;;;;;;34.80;16.10;;;;;;;3.59;100.00;103150.78;5013368;28;20030;-74
2022/01/17 02:31:08;;;;;;;35.45;15.98;;;;;;;3.39;100.00;103126.00;5013293;28;20137;-76
2022/01/17 02:33:34;;;;;;;34.03;15.48;;;;;;;3.47;100.00;103169.47;5013084;28;20026;-74
2022/01/17 02:36:01;;;;;;;37.92;15.60;;;;;;;3.40;100.00;103167.72;5012936;28;20037;-79
2022/01/17 02:38:26;;;;;;;33.65;16.45;;;;;;;3.39;100.00;103164.31;5013198;28;20081;-74
2022/01/17 02:40:52;;;;;;;38.97;16.02;;;;;;;3.38;100.00;103157.50;5013535;28;20029;-73
2022/01/17 02:43:20;;;;;;;38.78;16.70;;;;;;;3.35;100.00;103154.09;5013112;28;20226;-74
2022/01/17 02:48:23;;;;;;;33.63;15.77;;;;;;;3.26;100.00;103169.38;5012879;28;20026;-73
2022/01/17 02:50:48;;;;;;;31.63;14.75;;;;;;;3.10;100.00;103150.56;5013223;28;20026;-83
2022/01/17 02:53:15;;;;;;;28.00;15.50;;;;;;;3.05;100.00;103154.81;5012991;28;20037;-76
2022/01/17 02:55:46;;;;;;;35.20;14.75;;;;;;;3.12;100.00;103171.84;5012794;28;20025;-78
2022/01/17 02:58:13;;;;;;;34.08;15.38;;;;;;;3.07;100.00;103166.72;5012949;28;20026;-73
2022/01/17 03:00:39;;;;;;;30.90;15.10;;;;;;;3.07;100.00;103171.81;5012799;28;20029;-73
2022/01/17 03:03:08;;;;;;;31.17;15.43;;;;;;;2.90;100.00;103145.34;5012851;28;20022;-76
2022/01/17 03:05:34;;;;;;;45.15;15.93;;;;;;;3.03;100.00;103172.63;5012877;28;20060;-74
2022/01/17 03:08:00;;;;;;;35.50;15.20;;;;;;;3.01;100.00;103163.25;5012398;28;20494;-74
2022/01/17 03:10:39;;;;;;;33.80;15.30;;;;;;;3.03;100.00;103162.41;5012892;28;20109;-73
2022/01/17 03:13:13;;;;;;;32.08;16.17;;;;;;;3.07;100.00;103164.16;5012787;28;20056;-74
2022/01/17 03:15:39;;;;;;;29.90;15.88;;;;;;;3.05;100.00;103159.91;5012541;28;20388;-75
2022/01/17 03:18:06;;;;;;;31.83;15.77;;;;;;;2.84;100.00;103119.78;5012758;28;20113;-73
2022/01/17 03:20:34;;;;;;;37.05;16.27;;;;;;;2.86;100.00;103130.88;5012714;28;20026;-77
2022/01/17 03:23:00;;;;;;;31.85;14.48;;;;;;;2.92;100.00;103151.28;5012489;28;20022;-73
2022/01/17 03:25:25;;;;;;;35.28;15.13;;;;;;;2.85;100.00;103137.66;5012825;28;20053;-74
2022/01/17 03:27:50;;;;;;;35.45;14.80;;;;;;;2.93;100.00;103152.16;5012626;28;20034;-76
2022/01/17 03:30:16;;;;;;;35.60;14.93;;;;;;;2.95;100.00;103158.09;5016468;28;20064;-73
2022/01/17 03:32:41;;;;;;;33.60;15.07;;;;;;;2.95;100.00;103159.00;5016464;28;20030;-73
2022/01/17 03:35:08;;;;;;;29.67;14.43;;;;;;;2.91;100.00;103149.59;4998869;28;20169;-73
2022/01/17 03:37:33;;;;;;;34.50;14.57;;;;;;;2.96;100.00;103153.03;5016373;28;20120;-74
2022/01/17 03:39:59;;;;;;;35.40;15.25;;;;;;;3.01;100.00;103170.91;5016448;28;20552;-76
2022/01/17 03:42:24;;;;;;;31.13;13.98;;;;;;;2.86;100.00;103148.72;5016444;28;20389;-74
2022/01/17 03:44:50;;;;;;;24.17;12.80;;;;;;;2.87;100.00;103155.53;5016210;28;20025;-73
2022/01/17 03:47:16;;;;;;;34.58;13.70;;;;;;;2.76;100.00;103149.50;5016204;28;20022;-76
2022/01/17 03:49:41;;;;;;;31.02;13.55;;;;;;;2.67;100.00;103136.69;5016338;28;20100;-74
2022/01/17 03:52:07;;;;;;;31.25;12.60;;;;;;;2.75;100.00;103160.53;5016226;28;20529;-74
2022/01/17 03:54:32;;;;;;;30.73;13.38;;;;;;;2.73;100.00;103160.53;5015952;28;20104;-73
2022/01/17 03:56:58;;;;;;;26.40;12.68;;;;;;;2.66;100.00;103156.25;5015934;28;20061;-74
2022/01/17 03:59:24;;;;;;;30.70;13.07;;;;;;;2.45;100.00;103128.84;5016170;28;20458;-74
2022/01/17 04:01:50;;;;;;;29.77;12.15;;;;;;;2.59;100.00;103157.88;5015712;28;20026;-74
2022/01/17 04:04:15;;;;;;;29.33;11.82;;;;;;;2.60;100.00;103168.94;5015873;28;20026;-74
2022/01/17 04:06:40;;;;;;;28.85;12.60;;;;;;;2.56;100.00;103165.53;5016026;28;20537;-75
2022/01/17 04:09:06;;;;;;;33.58;11.52;;;;;;;2.53;100.00;103159.53;5015406;28;20073;-75
2022/01/17 04:11:31;;;;;;;29.52;12.05;;;;;;;2.51;100.00;103143.38;5015763;28;20022;-74
2022/01/17 04:13:57;;;;;;;29.25;11.70;;;;;;;2.26;100.00;103104.94;5015579;28;20022;-74
2022/01/17 04:16:22;;;;;;;26.02;11.40;;;;;;;2.40;100.00;103112.69;5015944;28;20081;-74
2022/01/17 04:18:47;;;;;;;23.85;10.50;;;;;;;2.79;100.00;103173.34;5015645;28;20092;-74
2022/01/17 04:21:13;;;;;;;24.42;11.15;;;;;;;2.79;100.00;103165.69;5015518;28;20046;-74
2022/01/17 04:23:38;;;;;;;29.70;10.32;;;;;;;2.82;100.00;103178.44;5015360;28;20425;-74
2022/01/17 04:26:04;;;;;;;25.85;10.00;;;;;;;2.66;100.00;103155.41;5015524;28;20033;-74
2022/01/17 04:28:30;;;;;;;26.58;9.98;;;;;;;2.74;100.00;103180.09;5015467;28;20022;-74
2022/01/17 04:30:55;;;;;;;24.48;9.57;;;;;;;2.65;100.00;103182.56;5015742;28;20076;-74
2022/01/17 04:33:21;;;;;;;22.80;9.10;;;;;;;2.64;100.00;103187.66;5015514;28;20026;-75
2022/01/17 04:35:46;;;;;;;19.98;9.00;;;;;;;2.59;100.00;103182.53;5015426;28;20068;-75
2022/01/17 04:38:17;;;;;;;24.35;8.77;;;;;;;2.53;100.00;103180.78;5015108;28;20105;-76
2022/01/17 04:40:45;;;;;;;23.25;8.80;;;;;;;2.47;100.00;103175.66;5014870;28;20026;-76
2022/01/17 04:43:22;;;;;;;22.83;9.73;;;;;;;2.45;100.00;103168.81;5007458;28;20497;-75
2022/01/17 04:45:49;;;;;;;23.50;8.73;;;;;;;2.48;100.00;103174.81;5015204;28;20037;-74
2022/01/17 04:48:14;;;;;;;22.52;8.48;;;;;;;2.32;100.00;103154.25;5015147;28;20030;-74
2022/01/17 04:50:40;;;;;;;26.10;9.18;;;;;;;2.41;100.00;103174.75;5015113;28;20156;-74
2022/01/17 04:53:07;;;;;;;24.35;9.48;;;;;;;2.30;100.00;103156.81;5015023;28;20041;-74
2022/01/17 04:55:33;;;;;;;25.60;8.38;;;;;;;2.39;100.00;103177.28;5014956;28;20029;-74
2022/01/17 04:57:59;;;;;;;24.50;8.27;;;;;;;2.34;100.00;103186.56;5014964;28;20080;-73
2022/01/17 05:00:26;;;;;;;18.77;7.97;;;;;;;2.30;100.00;103179.75;5014906;28;20113;-80
2022/01/17 05:02:52;;;;;;;23.70;8.65;;;;;;;2.38;100.00;103192.56;5014979;28;20124;-76
2022/01/17 05:05:18;;;;;;;21.58;7.60;;;;;;;2.37;100.00;103195.97;5014922;28;20018;-83
2022/01/17 05:07:44;;;;;;;19.80;7.75;;;;;;;2.37;100.00;103213.81;5014679;28;20057;-78
2022/01/17 05:10:12;;;;;;;22.38;7.80;;;;;;;2.40;100.00;103216.38;5014679;28;20109;-79
2022/01/17 05:12:38;;;;;;;18.77;7.40;;;;;;;2.40;100.00;103213.84;5014778;28;20041;-79
2022/01/17 05:15:06;;;;;;;21.45;7.70;;;;;;;2.35;100.00;103200.16;5014601;28;20029;-83
2022/01/17 05:19:58;;;;;;;19.65;8.23;;;;;;;2.39;100.00;103196.81;5014694;28;20029;-76
2022/01/17 05:22:26;;;;;;;19.13;6.97;;;;;;;2.56;100.00;103210.59;5014696;28;20104;-79
2022/01/17 05:24:51;;;;;;;23.17;7.82;;;;;;;2.63;100.00;103211.47;5014311;28;20449;-78
2022/01/17 05:27:17;;;;;;;17.88;6.95;;;;;;;2.46;100.00;103184.16;5014556;28;20037;-79
2022/01/17 05:29:42;;;;;;;22.50;7.70;;;;;;;2.48;100.00;103181.59;5014416;28;20022;-80
2022/01/17 05:32:08;;;;;;;21.95;7.90;;;;;;;2.58;100.00;103208.91;5012897;28;20037;-80
2022/01/17 05:34:34;;;;;;;19.77;7.35;;;;;;;2.51;100.00;103204.56;5014137;28;20025;-75
2022/01/17 05:37:03;;;;;;;22.10;7.97;;;;;;;2.48;100.00;103212.22;5014180;28;20060;-83
2022/01/17 05:39:28;;;;;;;18.55;8.00;;;;;;;2.40;100.00;103224.03;5013995;28;20034;-80
2022/01/17 05:41:53;;;;;;;25.08;7.88;;;;;;;2.39;100.00;103219.78;5014283;28;20100;-79
2022/01/17 05:44:19;;;;;;;19.70;8.80;;;;;;;2.21;100.00;103205.16;5013989;28;20175;-85
2022/01/17 05:46:44;;;;;;;18.75;7.60;;;;;;;2.32;100.00;103230.75;5013977;28;20072;-81
2022/01/17 05:49:09;;;;;;;19.70;7.68;;;;;;;2.03;100.00;103185.41;5014177;28;20034;-80
2022/01/17 05:51:35;;;;;;;24.08;9.07;;;;;;;2.27;100.00;103223.06;5013025;28;20030;-83
2022/01/17 05:54:00;;;;;;;20.15;8.85;;;;;;;2.15;100.00;103202.53;5013777;28;20026;-81
2022/01/17 05:56:26;;;;;;;19.70;8.60;;;;;;;2.21;100.00;103212.78;5013908;28;20069;-77
2022/01/17 05:58:51;;;;;;;21.88;9.65;;;;;;;2.27;100.00;103211.16;5013760;28;20108;-77
2022/01/17 06:01:16;;;;;;;29.25;11.25;;;;;;;2.30;100.00;103223.09;5013871;28;20068;-75
2022/01/17 06:03:42;;;;;;;30.25;10.88;;;;;;;2.31;100.00;103227.34;5013579;28;20033;-83
2022/01/17 06:06:07;;;;;;;28.77;12.05;;;;;;;2.33;100.00;103222.25;4995796;28;20460;-74
2022/01/17 06:08:33;;;;;;;30.40;11.85;;;;;;;2.39;100.00;103223.19;5013614;28;20555;-80
2022/01/17 06:11:00;;;;;;;28.30;12.52;;;;;;;2.11;100.00;103175.31;5020428;23;20529;-76
2022/01/17 06:13:28;;;;;;;27.80;12.85;;;;;;;2.39;100.00;103233.38;5078448;22;20073;-74
2022/01/17 06:15:53;;;;;;;32.95;13.68;;;;;;;2.41;100.00;103230.84;5013500;28;20385;-80
2022/01/17 06:18:18;;;;;;;29.25;13.43;;;;;;;2.26;100.00;103214.56;5013103;28;20029;-76
2022/01/17 06:20:44;;;;;;;30.25;12.75;;;;;;;2.38;100.00;103228.28;5013562;28;20032;-75
2022/01/17 06:23:09;;;;;;;35.65;14.85;;;;;;;2.32;100.00;103211.19;5013449;28;20499;-76
2022/01/17 06:25:34;;;;;;;31.92;14.27;;;;;;;2.28;100.00;103214.56;5013240;28;20068;-74
2022/01/17 06:28:00;;;;;;;35.03;14.65;;;;;;;2.28;100.00;103225.63;4995788;28;20042;-80
2022/01/17 06:30:26;;;;;;;34.83;15.15;;;;;;;2.33;100.00;103243.50;5013320;28;20029;-74
2022/01/17 06:32:51;;;;;;;32.78;14.80;;;;;;;2.30;100.00;103251.97;5013306;28;20076;-74
2022/01/17 06:35:17;;;;;;;32.72;14.93;;;;;;;2.28;100.00;103251.13;5013112;28;20037;-77
2022/01/17 06:37:44;;;;;;;29.02;14.38;;;;;;;2.06;100.00;103215.19;5013457;28;20092;-76
2022/01/17 06:40:10;;;;;;;31.23;14.23;;;;;;;2.26;100.00;103249.38;5013009;28;20492;-73
2022/01/17 06:42:36;;;;;;;30.90;13.77;;;;;;;2.27;100.00;103244.31;4995268;28;20038;-75
2022/01/17 06:45:04;;;;;;;31.17;14.30;;;;;;;2.27;100.00;103239.22;5013019;28;20034;-73
2022/01/17 06:47:35;;;;;;;35.95;14.68;;;;;;;2.38;100.00;103243.56;5013029;28;20025;-73
2022/01/17 06:50:04;;;;;;;32.97;14.52;;;;;;;2.37;100.00;103236.75;4994979;28;20530;-74
2022/01/17 06:52:29;;;;;;;41.30;16.30;;;;;;;2.41;100.00;103252.09;5012971;28;20033;-73
2022/01/17 06:54:55;;;;;;;32.05;14.27;;;;;;;2.51;100.00;103250.47;5012744;28;20030;-87
2022/01/17 06:57:22;;;;;;;31.02;14.13;;;;;;;2.51;100.00;103264.09;5012941;28;20026;-75
2022/01/17 06:59:48;;;;;;;33.75;14.57;;;;;;;2.47;100.00;103277.66;5012630;28;20029;-76
2022/01/17 07:02:13;;;;;;;29.02;14.23;;;;;;;2.34;100.00;103252.84;5012539;28;20029;-73
2022/01/17 07:04:38;;;;;;;33.42;14.80;;;;;;;2.43;100.00;103270.81;5012620;28;20363;-72
2022/01/17 07:07:04;;;;;;;29.92;14.32;;;;;;;2.37;100.00;103264.81;4994571;28;20034;-85
2022/01/17 07:09:29;;;;;;;37.95;14.73;;;;;;;2.39;100.00;103294.56;5012916;28;20041;-86
2022/01/17 07:11:58;;;;;;;30.63;14.20;;;;;;;2.40;100.00;103288.63;5012436;28;20489;-83
2022/01/17 07:14:25;;;;;;;33.63;16.00;;;;;;;2.42;100.00;103271.66;5012709;28;20490;-76
2022/01/17 07:16:50;;;;;;;38.50;16.17;;;;;;;2.42;100.00;103263.16;5012758;28;20030;-87
2022/01/17 07:19:16;;;;;;;36.15;17.50;;;;;;;2.45;100.00;103263.16;5012656;28;20473;-86
2022/01/17 07:21:41;;;;;;;36.47;17.60;;;;;;;2.42;100.00;103258.91;4994760;28;20042;-77
2022/01/17 07:24:06;;;;;;;38.17;17.40;;;;;;;2.00;100.00;103185.41;5012746;28;20022;-81
2022/01/17 07:26:32;;;;;;;39.97;18.08;;;;;;;2.43;100.00;103254.66;5012320;28;20029;-76
2022/01/17 07:28:58;;;;;;;37.50;17.52;;;;;;;2.39;100.00;103253.78;5012826;28;20386;-89
2022/01/17 07:31:23;;;;;;;39.22;17.25;;;;;;;2.26;100.00;103241.72;5012750;28;20060;-87
2022/01/17 07:33:48;;;;;;;37.35;17.50;;;;;;;2.36;100.00;103271.59;5012604;28;20177;-85
2022/01/17 07:36:18;;;;;;;41.92;18.92;;;;;;;2.34;100.00;103268.16;5012733;28;20501;-85
2022/01/17 07:38:43;;;;;;;38.65;18.38;;;;;;;2.34;100.00;103277.50;5012681;28;20029;-87
2022/01/17 07:41:09;;;;;;;38.13;17.70;;;;;;;2.23;100.00;103270.59;5012351;28;20026;-74
2022/01/17 07:43:37;;;;;;;36.90;17.23;;;;;;;2.14;100.00;103270.50;5012520;28;20026;-77
2022/01/17 07:46:05;;;;;;;41.70;18.75;;;;;;;2.30;100.00;103299.56;5012465;28;20060;-86
2022/01/17 07:51:16;;;;;;;43.95;19.17;;;;;;;2.28;100.00;103291.91;5012797;28;20105;-80
2022/01/17 07:53:41;;;;;;;40.60;19.27;;;;;;;2.26;100.00;103298.69;5011867;28;20034;-73
2022/01/17 07:56:07;;;;;;;42.00;20.67;;;;;;;2.29;100.00;103302.97;4994754;28;20477;-87
2022/01/17 07:58:32;;;;;;;41.03;18.95;;;;;;;2.25;100.00;103288.44;5012794;28;20057;-76
2022/01/17 08:00:58;;;;;;;40.38;20.55;;;;;;;2.26;100.00;103285.06;5013103;28;20458;-91
2022/01/17 08:03:23;;;;;;;42.17;20.00;;;;;;;2.43;100.00;103305.66;5012224;28;20040;-76
2022/01/17 08:05:48;;;;;;;39.00;20.67;;;;;;;2.46;100.00;103308.22;5012317;28;20033;-75
2022/01/17 08:08:14;;;;;;;44.05;20.20;;;;;;;2.45;100.00;103311.63;5011251;28;20026;-73
2022/01/17 08:10:39;;;;;;;45.83;20.70;;;;;;;2.38;100.00;103290.31;5012363;28;20033;-73
2022/01/17 08:13:05;;;;;;;43.20;21.98;;;;;;;2.54;100.00;103311.72;5011914;28;20097;-86
2022/01/17 08:15:31;;;;;;;43.47;22.00;;;;;;;2.39;100.00;103281.81;5014160;28;20485;-85
2022/01/17 08:17:56;;;;;;;47.45;22.13;;;;;;;2.61;100.00;103305.84;5015971;28;20021;-81
2022/01/17 08:20:22;;;;;;;47.55;22.83;;;;;;;2.59;100.00;103285.44;5015642;28;20040;-83
2022/01/17 08:22:47;;;;;;;47.50;23.13;;;;;;;2.93;100.00;103334.19;5015605;28;20458;-88
2022/01/17 08:25:14;;;;;;;50.05;22.55;;;;;;;2.98;100.00;103332.56;5015555;28;20030;-86
2022/01/17 08:27:39;;;;;;;47.35;23.00;;;;;;;3.01;100.00;103327.47;5015550;28;20018;-84
2022/01/17 08:30:05;;;;;;;51.10;23.38;;;;;;;3.07;100.00;103307.13;5015562;28;20386;-79
2022/01/17 08:32:32;;;;;;;45.78;21.80;;;;;;;3.17;100.00;103320.81;5015425;28;20034;-86
2022/01/17 08:34:58;;;;;;;46.25;23.00;;;;;;;3.33;100.00;103335.38;5015443;28;20029;-73
2022/01/17 08:37:25;;;;;;;48.97;22.60;;;;;;;3.24;100.00;103296.16;5015283;28;20033;-90
2022/01/17 08:39:51;;;;;;;48.85;23.42;;;;;;;3.47;100.00;103319.31;5015421;28;20476;-92
2022/01/17 08:42:16;;;;;;;57.50;23.20;;;;;;;3.43;100.00;103296.28;4997424;28;20041;-74
2022/01/17 08:44:49;;;;;;;44.75;21.15;;;;;;;3.69;100.00;103311.78;4997559;28;20025;-78
2022/01/17 08:47:15;;;;;;;42.78;22.52;;;;;;;3.79;100.00;103316.94;5015258;28;20026;-75
2022/01/17 08:49:41;;;;;;;44.28;21.88;;;;;;;3.82;100.00;103299.06;4997666;28;20038;-76
2022/01/17 08:52:06;;;;;;;46.63;22.23;;;;;;;3.86;100.00;103300.78;5015300;28;20101;-86
2022/01/17 08:54:31;;;;;;;43.20;20.95;;;;;;;4.04;100.00;103318.78;5015255;28;20030;-83
2022/01/17 08:56:57;;;;;;;47.95;20.80;;;;;;;4.05;100.00;103317.94;5015044;28;20030;-84
2022/01/17 08:59:22;;;;;;;50.08;20.65;;;;;;;4.18;100.00;103329.03;5014864;28;20093;-75
2022/01/17 09:01:47;;;;;;;39.72;19.58;;;;;;;4.24;100.00;103318.84;5014785;28;20034;-90
2022/01/17 09:04:13;;;;;;;37.58;17.75;;;;;;;4.28;100.00;103326.53;5014859;28;20033;-76
2022/01/17 09:06:38;;;;;;;42.45;18.10;;;;;;;4.31;100.00;103321.41;5014718;28;20057;-82
2022/01/17 09:09:04;;;;;;;41.70;17.92;;;;;;;4.25;100.00;103302.66;5014720;28;20029;-75
2022/01/17 09:11:30;;;;;;;38.20;17.63;;;;;;;4.42;100.00;103336.78;5014920;28;20476;-74
2022/01/17 09:13:55;;;;;;;45.50;18.10;;;;;;;4.21;100.00;103291.53;5014765;28;20029;-77
2022/01/17 09:16:21;;;;;;;37.83;17.58;;;;;;;4.59;100.00;103344.50;5014662;28;20117;-75
2022/01/17 09:18:46;;;;;;;33.75;17.67;;;;;;;4.67;100.00;103365.88;5014375;28;20026;-84
2022/01/17 09:21:11;;;;;;;37.78;17.45;;;;;;;4.56;100.00;103335.13;5014560;28;20034;-76
2022/01/17 09:23:37;;;;;;;35.85;16.77;;;;;;;4.82;100.00;103370.19;5014856;28;20054;-76
2022/01/17 09:26:03;;;;;;;34.47;17.73;;;;;;;4.84;100.00;103371.88;5014556;28;20037;-77
2022/01/17 09:28:28;;;;;;;34.80;16.50;;;;;;;4.85;100.00;103368.47;4995465;28;20045;-77
2022/01/17 09:30:54;;;;;;;33.03;15.70;;;;;;;4.57;100.00;103318.94;5014276;28;20026;-87
2022/01/17 09:33:19;;;;;;;33.75;15.32;;;;;;;4.94;100.00;103364.22;5014333;28;20389;-73
2022/01/17 09:35:45;;;;;;;33.70;15.35;;;;;;;4.60;100.00;103308.69;5014235;28;20037;-79
2022/01/17 09:38:10;;;;;;;26.27;13.88;;;;;;;4.95;100.00;103366.78;5014379;28;20026;-78
2022/01/17 09:40:36;;;;;;;32.50;14.63;;;;;;;4.86;100.00;103343.72;5014163;28;20026;-74
2022/01/17 09:43:02;;;;;;;33.28;14.45;;;;;;;4.98;100.00;103366.75;5014102;28;20118;-92
2022/01/17 09:45:28;;;;;;;31.52;14.75;;;;;;;4.86;100.00;103354.81;5014433;28;20377;-75
2022/01/17 09:47:54;;;;;;;31.85;13.48;;;;;;;5.03;100.00;103385.56;5014243;28;20022;-91
2022/01/17 09:50:31;;;;;;;26.58;13.52;;;;;;;4.96;100.00;103371.03;5013873;28;20540;-80
2022/01/17 09:52:59;;;;;;;28.10;12.98;;;;;;;4.89;100.00;103365.03;5014137;28;20030;-82
2022/01/17 09:55:27;;;;;;;27.80;13.23;;;;;;;5.10;100.00;103418.00;5013888;28;20026;-77
2022/01/17 09:58:04;;;;;;;31.50;12.35;;;;;;;5.11;100.00;103404.38;5014396;28;20026;-76
2022/01/17 10:00:33;;;;;;;25.35;11.45;;;;;;;4.88;100.00;103367.59;5014097;28;20022;-84
2022/01/17 10:03:03;;;;;;;25.65;11.93;;;;;;;5.15;100.00;103425.69;5014232;28;20025;-83
2022/01/17 10:05:28;;;;;;;24.90;11.75;;;;;;;5.21;100.00;103407.78;5015068;28;20029;-93
2022/01/17 10:08:11;;;;;;;28.92;10.82;;;;;;;5.19;100.00;103397.50;5014435;28;20026;-90
2022/01/17 10:10:49;;;;;;;31.85;10.75;;;;;;;5.24;100.00;103420.59;5014415;28;20018;-73
2022/01/17 10:13:23;;;;;;;28.50;10.65;;;;;;;5.27;100.00;103407.78;5013814;28;20069;-90
2022/01/17 10:16:14;;;;;;;26.63;10.43;;;;;;;5.31;100.00;103419.75;5013474;28;20030;-82
2022/01/17 10:19:02;;;;;;;28.70;9.95;;;;;;;5.31;100.00;103413.72;5013611;28;20030;-80
2022/01/17 10:21:30;;;;;;;24.75;9.43;;;;;;;5.43;99.91;103413.75;5013771;28;20133;-76
2022/01/17 10:24:14;;;;;;;25.85;10.00;;;;;;;5.45;99.76;103404.34;5013442;28;20537;-83
2022/01/17 10:34:56;;;;;;;;;;;;;;;5.62;100.00;103425.72;4953564;28;20125;-82
2022/01/17 10:37:24;;;;;;;25.10;9.20;;;;;;;5.67;99.00;103431.69;4952488;28;19972;-91
2022/01/17 10:39:55;;;;;;;29.50;8.18;;;;;;;5.74;97.96;103433.38;4952864;29;20459;-91
2022/01/17 10:42:25;;;;;;;27.65;8.43;;;;;;;5.80;97.58;103429.97;4952809;28;20031;-88
2022/01/17 10:44:50;;;;;;;30.77;8.23;;;;;;;5.87;98.61;103433.38;4952476;29;20123;-85
2022/01/17 10:47:20;;;;;;;29.13;7.97;;;;;;;5.91;97.74;103437.69;4954029;29;20450;-86
2022/01/17 10:49:54;;;;;;;32.90;8.38;;;;;;;5.94;97.32;103412.03;4952788;29;20448;-76
2022/01/17 10:52:31;;;;;;;27.88;8.10;;;;;;;5.96;96.81;103423.97;4952798;28;20019;-79
2022/01/17 10:54:59;;;;;;;28.85;7.97;;;;;;;5.98;96.60;103429.09;4952957;28;20187;-75
2022/01/17 10:57:26;;;;;;;26.08;7.90;;;;;;;5.99;96.45;103435.94;4952564;28;20059;-76
2022/01/17 10:59:53;;;;;;;23.40;7.82;;;;;;;6.05;96.14;103438.50;4952254;29;20147;-86
2022/01/17 11:02:18;;;;;;;19.60;7.07;;;;;;;6.09;95.68;103449.59;4936609;29;20492;-86
2022/01/17 11:04:48;;;;;;;20.75;7.82;;;;;;;5.86;95.72;103403.44;4952606;28;20035;-86
2022/01/17 11:07:13;;;;;;;23.63;7.15;;;;;;;6.18;95.46;103455.56;4952456;28;20027;-88
2022/01/17 11:09:41;;;;;;;20.95;6.90;;;;;;;6.10;95.23;103444.47;4996427;28;20112;-85
2022/01/17 11:12:14;;;;;;;26.13;7.20;;;;;;;6.03;94.93;103435.94;5011643;28;20038;-71
2022/01/17 11:14:41;;;;;;;23.17;6.68;;;;;;;6.20;95.02;103466.69;5012487;28;20032;-75
2022/01/17 11:17:34;;;;;;;22.63;6.30;;;;;;;6.24;95.07;103460.69;4995558;28;20060;-80
2022/01/17 11:20:03;;;;;;;28.40;6.85;;;;;;;6.19;94.96;103453.84;5013099;28;20141;-87
2022/01/17 11:22:29;;;;;;;23.67;7.03;;;;;;;6.15;94.80;103434.19;5012665;28;20025;-91
2022/01/17 11:24:56;;;;;;;25.23;7.28;;;;;;;6.28;95.08;103428.16;5012516;28;20033;-91
2022/01/17 11:27:22;;;;;;;23.15;6.53;;;;;;;6.44;94.68;103446.94;5013016;28;20442;-86
2022/01/17 11:29:48;;;;;;;24.88;6.70;;;;;;;6.46;94.65;103445.22;5012641;28;20025;-74
2022/01/17 11:32:14;;;;;;;23.40;6.32;;;;;;;6.49;94.67;103434.91;5012659;28;20386;-88
2022/01/17 11:34:39;;;;;;;29.13;7.03;;;;;;;6.53;94.48;103439.19;5012671;28;20022;-90
2022/01/17 11:37:05;;;;;;;31.63;7.10;;;;;;;6.43;94.35;103401.59;5012586;28;20093;-86
2022/01/17 11:39:30;;;;;;;22.23;6.32;;;;;;;6.61;94.30;103424.63;5012724;28;20493;-84
2022/01/17 11:41:56;;;;;;;27.08;7.57;;;;;;;6.50;93.94;103406.69;5012588;28;20393;-85